sensor_id;sensor_type;location;lat;lon;timestamp;temperature;humidity
52963;DHT22;38827;53.024;6.596;2023-08-30T00:01:49;14.10;80.90
52963;DHT22;38827;53.024;6.596;2023-08-30T00:04:15;14.00;80.90
52963;DHT22;38827;53.024;6.596;2023-08-30T00:06:41;14.00;81.00
52963;DHT22;38827;53.024;6.596;2023-08-30T00:09:06;14.00;81.10
52963;DHT22;38827;53.024;6.596;2023-08-30T00:11:33;13.90;81.20
52963;DHT22;38827;53.024;6.596;2023-08-30T00:14:05;13.90;81.30
52963;DHT22;38827;53.024;6.596;2023-08-30T00:16:32;13.90;81.40
52963;DHT22;38827;53.024;6.596;2023-08-30T00:18:58;13.80;81.60
52963;DHT22;38827;53.024;6.596;2023-08-30T00:21:24;13.80;81.60
52963;DHT22;38827;53.024;6.596;2023-08-30T00:23:52;13.80;81.60
52963;DHT22;38827;53.024;6.596;2023-08-30T00:26:18;13.80;81.70
52963;DHT22;38827;53.024;6.596;2023-08-30T00:28:44;13.70;81.70
52963;DHT22;38827;53.024;6.596;2023-08-30T00:31:09;13.70;81.60
52963;DHT22;38827;53.024;6.596;2023-08-30T00:33:35;13.70;81.70
52963;DHT22;38827;53.024;6.596;2023-08-30T00:36:01;13.60;81.70
52963;DHT22;38827;53.024;6.596;2023-08-30T00:38:27;13.60;82.00
52963;DHT22;38827;53.024;6.596;2023-08-30T00:40:53;13.60;82.00
52963;DHT22;38827;53.024;6.596;2023-08-30T00:43:22;13.60;82.10
52963;DHT22;38827;53.024;6.596;2023-08-30T00:45:48;13.60;82.30
52963;DHT22;38827;53.024;6.596;2023-08-30T00:48:15;13.60;82.20
52963;DHT22;38827;53.024;6.596;2023-08-30T00:50:42;13.60;82.20
52963;DHT22;38827;53.024;6.596;2023-08-30T00:53:08;13.50;82.10
52963;DHT22;38827;53.024;6.596;2023-08-30T00:55:39;13.50;82.20
52963;DHT22;38827;53.024;6.596;2023-08-30T00:58:09;13.50;82.40
52963;DHT22;38827;53.024;6.596;2023-08-30T01:00:36;13.50;82.40
52963;DHT22;38827;53.024;6.596;2023-08-30T01:03:03;13.50;82.50
52963;DHT22;38827;53.024;6.596;2023-08-30T01:05:30;13.40;82.40
52963;DHT22;38827;53.024;6.596;2023-08-30T01:07:55;13.40;82.50
52963;DHT22;38827;53.024;6.596;2023-08-30T01:10:51;13.40;82.50
52963;DHT22;38827;53.024;6.596;2023-08-30T01:13:19;13.40;82.40
52963;DHT22;38827;53.024;6.596;2023-08-30T01:20:53;13.40;82.50
52963;DHT22;38827;53.024;6.596;2023-08-30T01:23:32;13.40;82.50
52963;DHT22;38827;53.024;6.596;2023-08-30T01:28:54;13.30;82.60
52963;DHT22;38827;53.024;6.596;2023-08-30T01:31:23;13.40;82.50
52963;DHT22;38827;53.024;6.596;2023-08-30T01:33:50;13.40;82.50
52963;DHT22;38827;53.024;6.596;2023-08-30T01:36:16;13.30;82.50
52963;DHT22;38827;53.024;6.596;2023-08-30T01:38:42;13.40;82.50
52963;DHT22;38827;53.024;6.596;2023-08-30T01:41:08;13.40;82.50
52963;DHT22;38827;53.024;6.596;2023-08-30T01:43:35;13.30;82.40
52963;DHT22;38827;53.024;6.596;2023-08-30T01:46:03;13.30;82.30
52963;DHT22;38827;53.024;6.596;2023-08-30T01:48:32;13.40;82.30
52963;DHT22;38827;53.024;6.596;2023-08-30T01:50:59;13.30;82.10
52963;DHT22;38827;53.024;6.596;2023-08-30T01:53:25;13.30;82.10
52963;DHT22;38827;53.024;6.596;2023-08-30T01:55:52;13.30;82.00
52963;DHT22;38827;53.024;6.596;2023-08-30T01:58:18;13.30;81.80
52963;DHT22;38827;53.024;6.596;2023-08-30T02:00:44;13.30;81.90
52963;DHT22;38827;53.024;6.596;2023-08-30T02:03:14;13.30;81.70
52963;DHT22;38827;53.024;6.596;2023-08-30T02:05:57;13.20;81.70
52963;DHT22;38827;53.024;6.596;2023-08-30T02:08:35;13.20;81.70
52963;DHT22;38827;53.024;6.596;2023-08-30T02:11:04;13.20;81.80
52963;DHT22;38827;53.024;6.596;2023-08-30T02:13:33;13.10;81.60
52963;DHT22;38827;53.024;6.596;2023-08-30T02:16:01;13.10;81.80
52963;DHT22;38827;53.024;6.596;2023-08-30T02:18:27;13.10;81.90
52963;DHT22;38827;53.024;6.596;2023-08-30T02:20:54;13.00;81.80
52963;DHT22;38827;53.024;6.596;2023-08-30T02:23:25;13.00;81.80
52963;DHT22;38827;53.024;6.596;2023-08-30T02:25:51;13.00;82.00
52963;DHT22;38827;53.024;6.596;2023-08-30T02:28:16;12.90;82.00
52963;DHT22;38827;53.024;6.596;2023-08-30T02:30:42;12.90;82.10
52963;DHT22;38827;53.024;6.596;2023-08-30T02:33:07;12.90;82.10
52963;DHT22;38827;53.024;6.596;2023-08-30T02:35:33;12.80;82.30
52963;DHT22;38827;53.024;6.596;2023-08-30T02:37:59;12.80;82.30
52963;DHT22;38827;53.024;6.596;2023-08-30T02:40:25;12.80;82.40
52963;DHT22;38827;53.024;6.596;2023-08-30T02:43:15;12.80;82.40
52963;DHT22;38827;53.024;6.596;2023-08-30T02:45:41;12.80;82.40
52963;DHT22;38827;53.024;6.596;2023-08-30T02:48:06;12.70;82.60
52963;DHT22;38827;53.024;6.596;2023-08-30T02:50:32;12.70;82.60
52963;DHT22;38827;53.024;6.596;2023-08-30T02:52:58;12.70;82.50
52963;DHT22;38827;53.024;6.596;2023-08-30T02:55:23;12.70;82.60
52963;DHT22;38827;53.024;6.596;2023-08-30T02:57:49;12.70;82.60
52963;DHT22;38827;53.024;6.596;2023-08-30T03:00:16;12.80;82.70
52963;DHT22;38827;53.024;6.596;2023-08-30T03:02:42;12.80;82.80
52963;DHT22;38827;53.024;6.596;2023-08-30T03:05:08;12.80;82.70
52963;DHT22;38827;53.024;6.596;2023-08-30T03:07:34;12.80;82.70
52963;DHT22;38827;53.024;6.596;2023-08-30T03:10:00;12.80;82.50
52963;DHT22;38827;53.024;6.596;2023-08-30T03:12:29;12.80;82.60
52963;DHT22;38827;53.024;6.596;2023-08-30T03:14:55;12.80;82.50
52963;DHT22;38827;53.024;6.596;2023-08-30T03:17:20;12.80;82.50
52963;DHT22;38827;53.024;6.596;2023-08-30T03:19:46;12.80;82.60
52963;DHT22;38827;53.024;6.596;2023-08-30T03:27:42;12.70;82.50
52963;DHT22;38827;53.024;6.596;2023-08-30T03:30:09;12.60;82.40
52963;DHT22;38827;53.024;6.596;2023-08-30T03:32:34;12.50;82.70
52963;DHT22;38827;53.024;6.596;2023-08-30T03:35:00;12.50;82.70
52963;DHT22;38827;53.024;6.596;2023-08-30T03:37:27;12.50;82.90
52963;DHT22;38827;53.024;6.596;2023-08-30T03:39:53;12.50;82.90
52963;DHT22;38827;53.024;6.596;2023-08-30T03:42:18;12.40;82.70
52963;DHT22;38827;53.024;6.596;2023-08-30T03:44:44;12.40;82.90
52963;DHT22;38827;53.024;6.596;2023-08-30T03:47:10;12.30;82.90
52963;DHT22;38827;53.024;6.596;2023-08-30T03:49:36;12.30;83.00
52963;DHT22;38827;53.024;6.596;2023-08-30T03:52:02;12.30;83.00
52963;DHT22;38827;53.024;6.596;2023-08-30T03:54:27;12.20;83.20
52963;DHT22;38827;53.024;6.596;2023-08-30T03:56:53;12.20;83.30
52963;DHT22;38827;53.024;6.596;2023-08-30T03:59:23;12.20;83.30
52963;DHT22;38827;53.024;6.596;2023-08-30T04:01:53;12.20;83.40
52963;DHT22;38827;53.024;6.596;2023-08-30T04:06:54;12.10;83.60
52963;DHT22;38827;53.024;6.596;2023-08-30T04:12:07;12.00;83.70
52963;DHT22;38827;53.024;6.596;2023-08-30T04:14:33;12.00;83.70
52963;DHT22;38827;53.024;6.596;2023-08-30T04:16:59;12.00;83.90
52963;DHT22;38827;53.024;6.596;2023-08-30T04:19:25;12.00;84.00
52963;DHT22;38827;53.024;6.596;2023-08-30T04:21:50;12.00;84.10
52963;DHT22;38827;53.024;6.596;2023-08-30T04:24:16;12.00;84.10
52963;DHT22;38827;53.024;6.596;2023-08-30T04:26:45;12.00;84.10
52963;DHT22;38827;53.024;6.596;2023-08-30T04:29:10;12.00;84.10
52963;DHT22;38827;53.024;6.596;2023-08-30T04:31:36;12.10;84.10
52963;DHT22;38827;53.024;6.596;2023-08-30T04:34:03;12.10;84.10
52963;DHT22;38827;53.024;6.596;2023-08-30T04:36:29;12.10;84.00
52963;DHT22;38827;53.024;6.596;2023-08-30T04:38:54;12.20;84.00
52963;DHT22;38827;53.024;6.596;2023-08-30T04:41:22;12.20;83.90
52963;DHT22;38827;53.024;6.596;2023-08-30T04:43:47;12.20;84.00
52963;DHT22;38827;53.024;6.596;2023-08-30T04:48:48;12.20;83.80
52963;DHT22;38827;53.024;6.596;2023-08-30T04:51:14;12.30;83.80
52963;DHT22;38827;53.024;6.596;2023-08-30T04:53:39;12.30;83.60
52963;DHT22;38827;53.024;6.596;2023-08-30T04:56:10;12.30;83.60
52963;DHT22;38827;53.024;6.596;2023-08-30T04:58:36;12.30;83.40
52963;DHT22;38827;53.024;6.596;2023-08-30T05:01:01;12.30;83.60
52963;DHT22;38827;53.024;6.596;2023-08-30T05:03:28;12.30;83.50
52963;DHT22;38827;53.024;6.596;2023-08-30T05:05:53;12.30;83.50
52963;DHT22;38827;53.024;6.596;2023-08-30T05:08:19;12.40;83.40
52963;DHT22;38827;53.024;6.596;2023-08-30T05:10:44;12.40;83.30
52963;DHT22;38827;53.024;6.596;2023-08-30T05:13:12;12.40;83.30
52963;DHT22;38827;53.024;6.596;2023-08-30T05:15:37;12.40;83.40
52963;DHT22;38827;53.024;6.596;2023-08-30T05:18:04;12.50;83.40
52963;DHT22;38827;53.024;6.596;2023-08-30T05:20:29;12.50;83.30
52963;DHT22;38827;53.024;6.596;2023-08-30T05:22:55;12.50;83.40
52963;DHT22;38827;53.024;6.596;2023-08-30T05:25:21;12.50;83.20
52963;DHT22;38827;53.024;6.596;2023-08-30T05:27:47;12.60;83.30
52963;DHT22;38827;53.024;6.596;2023-08-30T05:30:13;12.60;83.20
52963;DHT22;38827;53.024;6.596;2023-08-30T05:32:45;12.60;83.10
52963;DHT22;38827;53.024;6.596;2023-08-30T05:35:11;12.60;83.10
52963;DHT22;38827;53.024;6.596;2023-08-30T05:37:36;12.60;83.10
52963;DHT22;38827;53.024;6.596;2023-08-30T05:40:02;12.70;82.90
52963;DHT22;38827;53.024;6.596;2023-08-30T05:42:30;12.70;82.90
52963;DHT22;38827;53.024;6.596;2023-08-30T05:44:56;12.70;82.80
52963;DHT22;38827;53.024;6.596;2023-08-30T05:47:24;12.70;82.70
52963;DHT22;38827;53.024;6.596;2023-08-30T05:56:09;12.90;82.20
52963;DHT22;38827;53.024;6.596;2023-08-30T05:58:34;13.00;81.70
52963;DHT22;38827;53.024;6.596;2023-08-30T06:01:01;13.10;81.70
52963;DHT22;38827;53.024;6.596;2023-08-30T06:03:26;13.20;81.40
52963;DHT22;38827;53.024;6.596;2023-08-30T06:05:53;13.30;81.10
52963;DHT22;38827;53.024;6.596;2023-08-30T06:08:21;13.30;80.80
52963;DHT22;38827;53.024;6.596;2023-08-30T06:10:47;13.40;80.70
52963;DHT22;38827;53.024;6.596;2023-08-30T06:13:29;13.40;80.40
52963;DHT22;38827;53.024;6.596;2023-08-30T06:15:58;13.50;80.30
52963;DHT22;38827;53.024;6.596;2023-08-30T06:18:30;13.50;80.10
52963;DHT22;38827;53.024;6.596;2023-08-30T06:20:56;13.60;80.00
52963;DHT22;38827;53.024;6.596;2023-08-30T06:23:22;13.60;79.80
52963;DHT22;38827;53.024;6.596;2023-08-30T06:25:57;13.70;79.70
52963;DHT22;38827;53.024;6.596;2023-08-30T06:28:23;13.70;79.40
52963;DHT22;38827;53.024;6.596;2023-08-30T06:30:49;13.70;79.20
52963;DHT22;38827;53.024;6.596;2023-08-30T06:33:15;13.80;79.00
52963;DHT22;38827;53.024;6.596;2023-08-30T06:35:41;13.80;78.80
52963;DHT22;38827;53.024;6.596;2023-08-30T06:38:08;13.90;78.50
52963;DHT22;38827;53.024;6.596;2023-08-30T06:40:33;13.90;78.00
52963;DHT22;38827;53.024;6.596;2023-08-30T06:43:20;13.90;78.30
52963;DHT22;38827;53.024;6.596;2023-08-30T06:46:23;14.00;77.40
52963;DHT22;38827;53.024;6.596;2023-08-30T06:49:16;14.10;77.30
52963;DHT22;38827;53.024;6.596;2023-08-30T06:55:44;14.20;76.90
52963;DHT22;38827;53.024;6.596;2023-08-30T06:58:29;14.20;76.60
52963;DHT22;38827;53.024;6.596;2023-08-30T07:08:22;14.40;75.60
52963;DHT22;38827;53.024;6.596;2023-08-30T07:10:48;14.50;75.50
52963;DHT22;38827;53.024;6.596;2023-08-30T07:13:19;14.50;75.50
52963;DHT22;38827;53.024;6.596;2023-08-30T07:15:45;14.60;75.00
52963;DHT22;38827;53.024;6.596;2023-08-30T07:18:12;14.60;75.00
52963;DHT22;38827;53.024;6.596;2023-08-30T07:20:39;14.60;74.80
52963;DHT22;38827;53.024;6.596;2023-08-30T07:23:04;14.70;74.80
52963;DHT22;38827;53.024;6.596;2023-08-30T07:25:30;14.80;74.50
52963;DHT22;38827;53.024;6.596;2023-08-30T07:27:59;14.80;74.10
52963;DHT22;38827;53.024;6.596;2023-08-30T07:30:25;14.90;73.80
52963;DHT22;38827;53.024;6.596;2023-08-30T07:35:16;15.10;73.70
52963;DHT22;38827;53.024;6.596;2023-08-30T07:37:42;15.30;72.90
52963;DHT22;38827;53.024;6.596;2023-08-30T07:40:08;15.50;72.20
52963;DHT22;38827;53.024;6.596;2023-08-30T07:42:34;15.60;71.60
52963;DHT22;38827;53.024;6.596;2023-08-30T07:45:00;15.70;71.40
52963;DHT22;38827;53.024;6.596;2023-08-30T07:47:25;15.90;70.70
52963;DHT22;38827;53.024;6.596;2023-08-30T07:49:51;16.10;69.90
52963;DHT22;38827;53.024;6.596;2023-08-30T07:52:18;16.30;69.60
52963;DHT22;38827;53.024;6.596;2023-08-30T07:54:46;16.50;69.00
52963;DHT22;38827;53.024;6.596;2023-08-30T07:57:12;16.70;68.10
52963;DHT22;38827;53.024;6.596;2023-08-30T07:59:38;16.80;67.40
52963;DHT22;38827;53.024;6.596;2023-08-30T08:02:05;16.90;67.30
52963;DHT22;38827;53.024;6.596;2023-08-30T08:04:34;17.00;66.80
52963;DHT22;38827;53.024;6.596;2023-08-30T08:07:03;17.30;66.00
52963;DHT22;38827;53.024;6.596;2023-08-30T08:09:30;17.60;65.30
52963;DHT22;38827;53.024;6.596;2023-08-30T08:11:56;17.80;64.60
52963;DHT22;38827;53.024;6.596;2023-08-30T08:14:23;18.10;63.80
52963;DHT22;38827;53.024;6.596;2023-08-30T08:16:49;18.30;62.70
52963;DHT22;38827;53.024;6.596;2023-08-30T08:19:14;18.50;62.50
52963;DHT22;38827;53.024;6.596;2023-08-30T08:21:40;18.50;62.10
52963;DHT22;38827;53.024;6.596;2023-08-30T08:24:06;18.50;62.20
52963;DHT22;38827;53.024;6.596;2023-08-30T08:26:32;18.40;62.30
52963;DHT22;38827;53.024;6.596;2023-08-30T08:28:57;18.20;62.30
52963;DHT22;38827;53.024;6.596;2023-08-30T08:31:23;18.20;62.60
52963;DHT22;38827;53.024;6.596;2023-08-30T08:34:11;18.00;62.60
52963;DHT22;38827;53.024;6.596;2023-08-30T08:36:39;18.00;62.00
52963;DHT22;38827;53.024;6.596;2023-08-30T08:39:05;17.90;63.60
52963;DHT22;38827;53.024;6.596;2023-08-30T08:44:05;17.90;62.50
52963;DHT22;38827;53.024;6.596;2023-08-30T08:46:31;17.90;62.80
52963;DHT22;38827;53.024;6.596;2023-08-30T08:48:58;17.90;62.60
52963;DHT22;38827;53.024;6.596;2023-08-30T08:51:27;17.90;62.30
52963;DHT22;38827;53.024;6.596;2023-08-30T08:53:58;18.00;62.10
52963;DHT22;38827;53.024;6.596;2023-08-30T08:59:56;18.00;62.20
52963;DHT22;38827;53.024;6.596;2023-08-30T09:02:24;17.90;61.80
52963;DHT22;38827;53.024;6.596;2023-08-30T09:04:52;17.80;62.60
52963;DHT22;38827;53.024;6.596;2023-08-30T09:07:18;17.70;62.60
52963;DHT22;38827;53.024;6.596;2023-08-30T09:09:45;17.60;63.00
52963;DHT22;38827;53.024;6.596;2023-08-30T09:12:24;17.60;63.30
52963;DHT22;38827;53.024;6.596;2023-08-30T09:14:56;17.60;63.10
52963;DHT22;38827;53.024;6.596;2023-08-30T09:17:22;17.50;63.10
52963;DHT22;38827;53.024;6.596;2023-08-30T09:19:47;17.40;63.40
52963;DHT22;38827;53.024;6.596;2023-08-30T09:22:15;17.40;63.50
52963;DHT22;38827;53.024;6.596;2023-08-30T09:24:41;17.30;63.60
52963;DHT22;38827;53.024;6.596;2023-08-30T09:27:07;17.20;63.90
52963;DHT22;38827;53.024;6.596;2023-08-30T09:29:33;17.00;64.10
52963;DHT22;38827;53.024;6.596;2023-08-30T09:32:00;17.00;64.30
52963;DHT22;38827;53.024;6.596;2023-08-30T09:34:27;16.90;64.90
52963;DHT22;38827;53.024;6.596;2023-08-30T09:36:53;16.90;65.00
52963;DHT22;38827;53.024;6.596;2023-08-30T09:39:19;16.80;65.30
52963;DHT22;38827;53.024;6.596;2023-08-30T09:41:49;16.80;65.10
52963;DHT22;38827;53.024;6.596;2023-08-30T09:44:16;16.70;65.60
52963;DHT22;38827;53.024;6.596;2023-08-30T09:46:52;16.60;66.10
52963;DHT22;38827;53.024;6.596;2023-08-30T09:49:23;16.50;66.50
52963;DHT22;38827;53.024;6.596;2023-08-30T09:51:50;16.40;67.30
52963;DHT22;38827;53.024;6.596;2023-08-30T09:54:24;16.30;67.90
52963;DHT22;38827;53.024;6.596;2023-08-30T09:56:51;16.30;68.40
52963;DHT22;38827;53.024;6.596;2023-08-30T09:59:18;16.30;69.20
52963;DHT22;38827;53.024;6.596;2023-08-30T10:01:47;16.20;69.60
52963;DHT22;38827;53.024;6.596;2023-08-30T10:04:14;16.30;70.40
52963;DHT22;38827;53.024;6.596;2023-08-30T10:06:43;16.30;70.70
52963;DHT22;38827;53.024;6.596;2023-08-30T10:09:10;16.40;71.00
52963;DHT22;38827;53.024;6.596;2023-08-30T10:11:37;16.70;71.80
52963;DHT22;38827;53.024;6.596;2023-08-30T10:14:04;17.10;70.60
52963;DHT22;38827;53.024;6.596;2023-08-30T10:16:32;17.60;69.80
52963;DHT22;38827;53.024;6.596;2023-08-30T10:19:03;17.90;68.40
52963;DHT22;38827;53.024;6.596;2023-08-30T10:21:36;18.00;67.60
52963;DHT22;38827;53.024;6.596;2023-08-30T10:24:05;17.90;67.50
52963;DHT22;38827;53.024;6.596;2023-08-30T10:26:32;17.80;67.70
52963;DHT22;38827;53.024;6.596;2023-08-30T10:28:59;17.80;67.90
52963;DHT22;38827;53.024;6.596;2023-08-30T10:31:27;17.70;67.50
52963;DHT22;38827;53.024;6.596;2023-08-30T10:33:53;17.70;67.50
52963;DHT22;38827;53.024;6.596;2023-08-30T10:36:23;17.80;67.50
52963;DHT22;38827;53.024;6.596;2023-08-30T10:38:54;18.00;67.10
52963;DHT22;38827;53.024;6.596;2023-08-30T10:41:24;18.20;67.00
52963;DHT22;38827;53.024;6.596;2023-08-30T10:43:55;18.40;67.00
52963;DHT22;38827;53.024;6.596;2023-08-30T10:46:31;18.50;65.90
52963;DHT22;38827;53.024;6.596;2023-08-30T10:49:19;18.60;65.40
52963;DHT22;38827;53.024;6.596;2023-08-30T10:51:44;18.80;65.30
52963;DHT22;38827;53.024;6.596;2023-08-30T10:54:11;18.80;65.10
52963;DHT22;38827;53.024;6.596;2023-08-30T10:56:46;18.90;65.10
52963;DHT22;38827;53.024;6.596;2023-08-30T10:59:21;18.90;64.50
52963;DHT22;38827;53.024;6.596;2023-08-30T11:01:48;18.80;64.60
52963;DHT22;38827;53.024;6.596;2023-08-30T11:04:17;18.70;64.90
52963;DHT22;38827;53.024;6.596;2023-08-30T11:06:48;18.60;65.20
52963;DHT22;38827;53.024;6.596;2023-08-30T11:09:15;18.50;65.30
52963;DHT22;38827;53.024;6.596;2023-08-30T11:11:45;18.30;65.40
52963;DHT22;38827;53.024;6.596;2023-08-30T11:14:11;18.20;65.90
52963;DHT22;38827;53.024;6.596;2023-08-30T11:16:37;17.90;65.50
52963;DHT22;38827;53.024;6.596;2023-08-30T11:19:04;17.70;66.90
52963;DHT22;38827;53.024;6.596;2023-08-30T11:21:32;17.50;67.30
52963;DHT22;38827;53.024;6.596;2023-08-30T11:23:58;17.40;67.70
52963;DHT22;38827;53.024;6.596;2023-08-30T11:26:24;17.30;68.20
52963;DHT22;38827;53.024;6.596;2023-08-30T11:28:50;17.20;68.80
52963;DHT22;38827;53.024;6.596;2023-08-30T11:31:27;17.20;69.10
52963;DHT22;38827;53.024;6.596;2023-08-30T11:33:54;17.20;69.30
52963;DHT22;38827;53.024;6.596;2023-08-30T11:36:32;17.10;69.90
52963;DHT22;38827;53.024;6.596;2023-08-30T11:39:03;17.00;70.20
52963;DHT22;38827;53.024;6.596;2023-08-30T11:41:29;16.90;70.80
52963;DHT22;38827;53.024;6.596;2023-08-30T11:43:58;16.80;71.10
52963;DHT22;38827;53.024;6.596;2023-08-30T11:46:24;16.70;71.80
52963;DHT22;38827;53.024;6.596;2023-08-30T11:48:56;16.60;72.40
52963;DHT22;38827;53.024;6.596;2023-08-30T11:51:22;16.60;72.80
52963;DHT22;38827;53.024;6.596;2023-08-30T11:53:48;16.50;73.30
52963;DHT22;38827;53.024;6.596;2023-08-30T11:56:14;16.40;73.70
52963;DHT22;38827;53.024;6.596;2023-08-30T11:58:41;16.40;73.70
52963;DHT22;38827;53.024;6.596;2023-08-30T12:01:07;16.30;74.20
52963;DHT22;38827;53.024;6.596;2023-08-30T12:03:33;16.20;74.50
52963;DHT22;38827;53.024;6.596;2023-08-30T12:06:12;16.20;74.50
52963;DHT22;38827;53.024;6.596;2023-08-30T12:09:12;16.20;74.80
52963;DHT22;38827;53.024;6.596;2023-08-30T12:11:38;16.20;74.90
52963;DHT22;38827;53.024;6.596;2023-08-30T12:14:04;16.20;75.30
52963;DHT22;38827;53.024;6.596;2023-08-30T12:19:57;16.20;75.10
52963;DHT22;38827;53.024;6.596;2023-08-30T12:22:23;16.10;75.40
52963;DHT22;38827;53.024;6.596;2023-08-30T12:24:49;16.00;75.40
52963;DHT22;38827;53.024;6.596;2023-08-30T12:27:15;16.00;75.70
52963;DHT22;38827;53.024;6.596;2023-08-30T12:29:41;16.00;76.00
52963;DHT22;38827;53.024;6.596;2023-08-30T12:32:07;16.00;76.30
52963;DHT22;38827;53.024;6.596;2023-08-30T12:34:33;16.00;76.50
52963;DHT22;38827;53.024;6.596;2023-08-30T12:36:59;16.00;76.90
52963;DHT22;38827;53.024;6.596;2023-08-30T12:39:28;16.00;77.10
52963;DHT22;38827;53.024;6.596;2023-08-30T12:41:54;16.10;77.30
52963;DHT22;38827;53.024;6.596;2023-08-30T12:44:21;16.10;77.40
52963;DHT22;38827;53.024;6.596;2023-08-30T12:46:46;16.10;77.70
52963;DHT22;38827;53.024;6.596;2023-08-30T12:49:12;16.20;77.30
52963;DHT22;38827;53.024;6.596;2023-08-30T12:51:38;16.30;77.20
52963;DHT22;38827;53.024;6.596;2023-08-30T12:54:03;16.30;77.00
52963;DHT22;38827;53.024;6.596;2023-08-30T12:56:29;16.40;77.20
52963;DHT22;38827;53.024;6.596;2023-08-30T12:58:55;16.40;77.10
52963;DHT22;38827;53.024;6.596;2023-08-30T13:01:20;16.50;77.10
52963;DHT22;38827;53.024;6.596;2023-08-30T13:03:50;16.50;77.00
52963;DHT22;38827;53.024;6.596;2023-08-30T13:06:16;16.60;77.00
52963;DHT22;38827;53.024;6.596;2023-08-30T13:17:22;16.70;75.90
52963;DHT22;38827;53.024;6.596;2023-08-30T13:20:04;16.60;76.30
52963;DHT22;38827;53.024;6.596;2023-08-30T13:22:30;16.70;76.30
52963;DHT22;38827;53.024;6.596;2023-08-30T13:29:27;16.70;75.90
52963;DHT22;38827;53.024;6.596;2023-08-30T13:31:53;16.70;75.80
52963;DHT22;38827;53.024;6.596;2023-08-30T13:34:24;16.60;76.40
52963;DHT22;38827;53.024;6.596;2023-08-30T13:36:50;16.50;76.70
52963;DHT22;38827;53.024;6.596;2023-08-30T13:39:15;16.50;77.20
52963;DHT22;38827;53.024;6.596;2023-08-30T13:41:41;16.50;77.70
52963;DHT22;38827;53.024;6.596;2023-08-30T13:44:07;16.40;77.90
52963;DHT22;38827;53.024;6.596;2023-08-30T13:46:33;16.30;78.20
52963;DHT22;38827;53.024;6.596;2023-08-30T13:48:59;16.30;78.60
52963;DHT22;38827;53.024;6.596;2023-08-30T13:59:11;15.90;79.50
52963;DHT22;38827;53.024;6.596;2023-08-30T14:01:36;15.90;80.10
52963;DHT22;38827;53.024;6.596;2023-08-30T14:04:02;15.80;80.50
52963;DHT22;38827;53.024;6.596;2023-08-30T14:06:30;15.80;80.60
52963;DHT22;38827;53.024;6.596;2023-08-30T14:08:57;15.80;80.80
52963;DHT22;38827;53.024;6.596;2023-08-30T14:11:22;15.70;81.10
52963;DHT22;38827;53.024;6.596;2023-08-30T14:13:48;15.70;81.40
52963;DHT22;38827;53.024;6.596;2023-08-30T14:16:13;15.80;81.30
52963;DHT22;38827;53.024;6.596;2023-08-30T14:19:16;15.80;81.40
52963;DHT22;38827;53.024;6.596;2023-08-30T14:40:26;16.40;80.00
52963;DHT22;38827;53.024;6.596;2023-08-30T14:42:52;16.50;79.80
52963;DHT22;38827;53.024;6.596;2023-08-30T14:45:25;16.50;79.70
52963;DHT22;38827;53.024;6.596;2023-08-30T14:47:51;16.50;79.80
52963;DHT22;38827;53.024;6.596;2023-08-30T14:50:17;16.50;79.60
52963;DHT22;38827;53.024;6.596;2023-08-30T14:52:44;16.50;79.70
52963;DHT22;38827;53.024;6.596;2023-08-30T14:55:10;16.50;79.80
52963;DHT22;38827;53.024;6.596;2023-08-30T14:57:36;16.50;79.90
52963;DHT22;38827;53.024;6.596;2023-08-30T15:00:02;16.50;80.10
52963;DHT22;38827;53.024;6.596;2023-08-30T15:02:28;16.50;80.40
52963;DHT22;38827;53.024;6.596;2023-08-30T15:04:53;16.60;80.40
52963;DHT22;38827;53.024;6.596;2023-08-30T15:07:19;16.60;80.40
52963;DHT22;38827;53.024;6.596;2023-08-30T15:09:45;16.70;80.30
52963;DHT22;38827;53.024;6.596;2023-08-30T15:12:10;16.80;80.20
52963;DHT22;38827;53.024;6.596;2023-08-30T15:14:36;16.90;79.80
52963;DHT22;38827;53.024;6.596;2023-08-30T15:17:06;17.10;79.50
52963;DHT22;38827;53.024;6.596;2023-08-30T15:19:35;17.30;79.20
52963;DHT22;38827;53.024;6.596;2023-08-30T15:22:01;17.50;78.60
52963;DHT22;38827;53.024;6.596;2023-08-30T15:24:27;17.60;78.20
52963;DHT22;38827;53.024;6.596;2023-08-30T15:26:52;17.60;77.90
52963;DHT22;38827;53.024;6.596;2023-08-30T15:29:18;17.60;78.10
52963;DHT22;38827;53.024;6.596;2023-08-30T15:31:44;17.70;77.80
52963;DHT22;38827;53.024;6.596;2023-08-30T15:34:13;18.10;77.20
52963;DHT22;38827;53.024;6.596;2023-08-30T15:36:39;18.70;75.50
52963;DHT22;38827;53.024;6.596;2023-08-30T15:42:12;19.20;72.40
52963;DHT22;38827;53.024;6.596;2023-08-30T15:54:48;19.80;68.40
52963;DHT22;38827;53.024;6.596;2023-08-30T15:57:29;19.10;69.70
52963;DHT22;38827;53.024;6.596;2023-08-30T16:04:20;18.20;71.30
52963;DHT22;38827;53.024;6.596;2023-08-30T16:09:50;17.30;74.10
52963;DHT22;38827;53.024;6.596;2023-08-30T16:12:17;17.10;75.10
52963;DHT22;38827;53.024;6.596;2023-08-30T16:14:45;17.00;75.90
52963;DHT22;38827;53.024;6.596;2023-08-30T16:20:36;16.80;76.70
52963;DHT22;38827;53.024;6.596;2023-08-30T16:23:01;16.70;77.50
52963;DHT22;38827;53.024;6.596;2023-08-30T16:25:27;16.70;77.90
52963;DHT22;38827;53.024;6.596;2023-08-30T16:27:53;16.80;78.30
52963;DHT22;38827;53.024;6.596;2023-08-30T16:30:19;16.80;78.70
52963;DHT22;38827;53.024;6.596;2023-08-30T16:32:44;16.80;78.90
52963;DHT22;38827;53.024;6.596;2023-08-30T16:35:10;16.80;79.00
52963;DHT22;38827;53.024;6.596;2023-08-30T16:37:36;16.80;79.30
52963;DHT22;38827;53.024;6.596;2023-08-30T16:40:01;16.90;79.40
52963;DHT22;38827;53.024;6.596;2023-08-30T16:42:27;16.90;79.40
52963;DHT22;38827;53.024;6.596;2023-08-30T16:44:56;17.00;79.50
52963;DHT22;38827;53.024;6.596;2023-08-30T16:47:21;17.10;79.40
52963;DHT22;38827;53.024;6.596;2023-08-30T16:49:47;17.10;79.30
52963;DHT22;38827;53.024;6.596;2023-08-30T16:52:12;17.10;78.90
52963;DHT22;38827;53.024;6.596;2023-08-30T16:54:38;17.20;78.70
52963;DHT22;38827;53.024;6.596;2023-08-30T16:57:04;17.30;78.70
52963;DHT22;38827;53.024;6.596;2023-08-30T16:59:30;17.30;78.80
52963;DHT22;38827;53.024;6.596;2023-08-30T17:02:04;17.30;78.60
52963;DHT22;38827;53.024;6.596;2023-08-30T17:04:30;17.30;78.50
52963;DHT22;38827;53.024;6.596;2023-08-30T17:06:56;17.30;78.70
52963;DHT22;38827;53.024;6.596;2023-08-30T17:09:26;17.30;78.50
52963;DHT22;38827;53.024;6.596;2023-08-30T17:12:07;17.30;78.30
52963;DHT22;38827;53.024;6.596;2023-08-30T17:14:35;17.40;78.10
52963;DHT22;38827;53.024;6.596;2023-08-30T17:17:01;17.40;78.50
52963;DHT22;38827;53.024;6.596;2023-08-30T17:19:27;17.40;78.50
52963;DHT22;38827;53.024;6.596;2023-08-30T17:21:53;17.50;78.60
52963;DHT22;38827;53.024;6.596;2023-08-30T17:24:20;17.60;78.30
52963;DHT22;38827;53.024;6.596;2023-08-30T17:26:49;17.60;78.00
52963;DHT22;38827;53.024;6.596;2023-08-30T17:29:15;17.60;77.80